createdAt,value
2022-11-20T00:01:34.260Z,34.28
2022-11-20T00:04:02.037Z,34.38
2022-11-20T00:06:30.465Z,30.65
2022-11-20T00:09:01.243Z,35.80
2022-11-20T00:11:31.513Z,29.48
2022-11-20T00:14:02.139Z,26.55
2022-11-20T00:16:33.523Z,30.00
2022-11-20T00:19:01.342Z,26.23
2022-11-20T00:21:29.991Z,28.13
2022-11-20T00:23:58.846Z,31.10
2022-11-20T00:26:28.230Z,26.13
2022-11-20T00:28:59.193Z,31.10
2022-11-20T00:31:28.298Z,28.83
2022-11-20T00:33:56.528Z,30.53
2022-11-20T00:36:27.321Z,29.60
2022-11-20T00:38:58.014Z,29.98
2022-11-20T00:41:27.795Z,29.88
2022-11-20T00:43:57.218Z,27.92
2022-11-20T00:46:27.842Z,34.23
2022-11-20T00:48:55.609Z,30.27
2022-11-20T00:51:25.783Z,27.85
2022-11-20T00:53:55.524Z,25.83
2022-11-20T00:56:23.239Z,28.98
2022-11-20T00:58:51.009Z,26.13
2022-11-20T01:01:21.972Z,30.88
2022-11-20T01:03:53.003Z,29.77
2022-11-20T01:06:27.491Z,30.88
2022-11-20T01:08:58.266Z,28.52
2022-11-20T01:11:30.076Z,30.57
2022-11-20T01:13:59.846Z,30.00
2022-11-20T01:16:43.096Z,30.65
2022-11-20T01:19:18.797Z,33.97
2022-11-20T01:21:49.053Z,29.58
2022-11-20T01:24:19.182Z,33.47
2022-11-20T01:26:50.282Z,31.05
2022-11-20T01:29:25.289Z,34.65
2022-11-20T01:31:54.062Z,31.48
2022-11-20T01:34:23.514Z,32.05
2022-11-20T01:36:52.469Z,31.17
2022-11-20T01:39:26.677Z,30.23
2022-11-20T01:42:15.730Z,34.45
2022-11-20T01:44:55.790Z,32.45
2022-11-20T01:47:34.618Z,31.85
2022-11-20T01:50:27.238Z,32.57
2022-11-20T01:53:05.262Z,31.95
2022-11-20T01:55:39.903Z,29.80
2022-11-20T01:58:08.275Z,29.08
2022-11-20T02:00:36.789Z,33.30
2022-11-20T02:03:14.872Z,32.00
2022-11-20T02:06:26.030Z,33.97
2022-11-20T02:08:54.430Z,32.40
2022-11-20T02:11:23.187Z,32.15
2022-11-20T02:13:51.554Z,33.38
2022-11-20T02:16:27.221Z,33.73
2022-11-20T02:18:57.054Z,33.58
2022-11-20T02:21:50.325Z,30.20
2022-11-20T02:24:23.047Z,29.42
2022-11-20T02:26:59.445Z,32.05
2022-11-20T02:30:05.775Z,33.07
2022-11-20T02:32:36.830Z,32.35
2022-11-20T02:35:19.600Z,35.42
2022-11-20T02:37:55.672Z,38.00
2022-11-20T02:40:23.867Z,32.38
2022-11-20T02:42:56.029Z,33.33
2022-11-20T02:45:25.008Z,33.63
2022-11-20T02:47:53.262Z,35.65
2022-11-20T02:50:21.689Z,32.85
2022-11-20T02:52:50.981Z,32.75
2022-11-20T02:55:18.662Z,34.20
2022-11-20T02:57:46.317Z,33.88
2022-11-20T03:00:14.849Z,31.42
2022-11-20T03:02:42.614Z,36.50
2022-11-20T03:05:10.288Z,33.80
2022-11-20T03:07:37.984Z,35.20
2022-11-20T03:10:06.781Z,33.50
2022-11-20T03:12:34.478Z,30.00
2022-11-20T03:15:02.248Z,37.28
2022-11-20T03:17:30.642Z,30.25
2022-11-20T03:19:58.300Z,31.33
2022-11-20T03:22:26.015Z,32.20
2022-11-20T03:24:53.670Z,29.70
2022-11-20T03:27:21.389Z,33.13
2022-11-20T03:29:49.054Z,31.85
2022-11-20T03:32:16.746Z,29.40
2022-11-20T03:34:44.459Z,32.17
2022-11-20T03:37:12.118Z,32.50
2022-11-20T03:39:39.826Z,32.10
2022-11-20T03:42:27.493Z,30.73
2022-11-20T03:44:55.233Z,31.27
2022-11-20T03:47:22.929Z,31.48
2022-11-20T03:49:50.718Z,32.38
2022-11-20T03:52:18.426Z,30.38
2022-11-20T03:54:46.075Z,31.60
2022-11-20T03:57:13.787Z,30.47
2022-11-20T03:59:41.494Z,31.90
2022-11-20T04:02:09.272Z,32.38
2022-11-20T04:04:37.031Z,29.23
2022-11-20T04:07:05.823Z,32.40
2022-11-20T04:09:33.530Z,32.87
2022-11-20T04:12:01.255Z,31.60
2022-11-20T04:14:28.909Z,32.40
2022-11-20T04:16:56.575Z,30.42
2022-11-20T04:19:24.453Z,30.10
2022-11-20T04:21:52.185Z,30.57
2022-11-20T04:24:19.834Z,28.38
2022-11-20T04:26:47.497Z,30.10
2022-11-20T04:29:15.210Z,31.17
2022-11-20T04:31:42.908Z,31.35
2022-11-20T04:34:13.770Z,29.43
2022-11-20T04:36:41.715Z,30.75
2022-11-20T04:39:15.130Z,32.45
2022-11-20T04:41:43.014Z,28.50
2022-11-20T04:44:11.230Z,29.58
2022-11-20T04:46:43.760Z,30.73
2022-11-20T04:49:12.938Z,28.90
2022-11-20T04:51:40.713Z,31.88
2022-11-20T04:54:09.023Z,29.38
2022-11-20T04:56:36.680Z,27.20
2022-11-20T04:59:04.669Z,27.83
2022-11-20T05:01:33.451Z,32.58
2022-11-20T05:04:01.238Z,31.42
2022-11-20T05:06:28.894Z,29.58
2022-11-20T05:08:56.547Z,31.90
2022-11-20T05:11:24.406Z,30.47
2022-11-20T05:13:53.204Z,31.75
2022-11-20T05:16:25.999Z,31.38
2022-11-20T05:18:55.521Z,26.33
2022-11-20T05:21:23.761Z,27.73
2022-11-20T05:23:51.471Z,27.90
2022-11-20T05:26:23.563Z,28.70
2022-11-20T05:28:52.279Z,30.05
2022-11-20T05:31:27.179Z,27.60
2022-11-20T05:33:57.717Z,32.28
2022-11-20T05:36:25.824Z,28.43
2022-11-20T05:38:58.044Z,32.17
2022-11-20T05:41:29.359Z,26.58
2022-11-20T05:43:58.738Z,25.50
2022-11-20T05:46:29.112Z,27.02
2022-11-20T05:48:58.457Z,26.63
2022-11-20T05:51:28.587Z,26.42
2022-11-20T05:53:59.609Z,27.30
2022-11-20T05:56:27.309Z,29.45
2022-11-20T05:58:55.081Z,27.13
2022-11-20T06:01:26.591Z,28.90
2022-11-20T06:03:55.347Z,29.58
2022-11-20T06:06:23.490Z,29.25
2022-11-20T06:08:51.162Z,23.30
2022-11-20T06:11:19.231Z,26.50
2022-11-20T06:13:47.736Z,26.47
2022-11-20T06:16:19.472Z,31.02
2022-11-20T06:18:48.068Z,29.20
2022-11-20T06:21:19.755Z,25.65
2022-11-20T06:23:48.470Z,28.35
2022-11-20T06:26:28.619Z,29.13
2022-11-20T06:28:59.243Z,27.70
2022-11-20T06:31:27.455Z,22.98
2022-11-20T06:33:55.779Z,26.50
2022-11-20T06:36:24.192Z,27.85
2022-11-20T06:38:51.934Z,29.20
2022-11-20T06:41:22.291Z,28.42
2022-11-20T06:43:50.501Z,26.30
2022-11-20T06:46:20.119Z,32.08
2022-11-20T06:48:49.568Z,25.70
2022-11-20T06:51:18.228Z,25.63
2022-11-20T06:53:46.146Z,27.05
2022-11-20T06:56:13.885Z,29.10
2022-11-20T06:58:41.593Z,27.92
2022-11-20T07:01:13.440Z,25.65
2022-11-20T07:03:42.545Z,30.20
2022-11-20T07:06:10.646Z,30.15
2022-11-20T07:08:39.654Z,29.23
2022-11-20T07:11:08.904Z,32.17
2022-11-20T07:13:36.621Z,29.85
2022-11-20T07:16:07.967Z,31.70
2022-11-20T07:18:36.507Z,29.45
2022-11-20T07:21:06.522Z,29.58
2022-11-20T07:23:34.368Z,32.25
2022-11-20T07:26:10.516Z,27.63
2022-11-20T07:28:38.789Z,30.57
2022-11-20T07:31:08.358Z,28.85
2022-11-20T07:33:36.102Z,31.63
2022-11-20T07:36:04.216Z,31.35
2022-11-20T07:38:32.094Z,30.65
2022-11-20T07:41:02.367Z,32.23
2022-11-20T07:43:30.483Z,35.90
2022-11-20T07:45:59.999Z,29.60
2022-11-20T07:48:27.930Z,35.58
2022-11-20T07:50:57.391Z,32.22
2022-11-20T07:53:25.426Z,35.27
2022-11-20T07:55:53.442Z,32.33
2022-11-20T07:58:22.501Z,33.80
2022-11-20T08:00:50.539Z,31.38
2022-11-20T08:03:24.251Z,33.22
2022-11-20T08:05:53.523Z,32.43
2022-11-20T08:08:23.788Z,37.38
2022-11-20T08:10:51.430Z,39.35
2022-11-20T08:13:37.462Z,38.33
2022-11-20T08:16:05.532Z,34.63
2022-11-20T08:18:33.396Z,35.10
2022-11-20T08:21:05.642Z,36.22
2022-11-20T08:23:33.388Z,32.47
2022-11-20T08:26:01.068Z,32.22
2022-11-20T08:28:28.822Z,32.25
2022-11-20T08:31:03.822Z,35.60
2022-11-20T08:33:33.582Z,32.40
2022-11-20T08:36:03.492Z,35.63
2022-11-20T08:38:31.946Z,34.35
2022-11-20T08:41:19.987Z,35.63
2022-11-20T08:43:47.641Z,36.50
2022-11-20T08:46:15.617Z,36.88
2022-11-20T08:48:43.645Z,36.97
2022-11-20T08:51:12.640Z,37.15
2022-11-20T08:53:41.530Z,35.15
2022-11-20T08:56:10.694Z,36.17
2022-11-20T08:59:09.670Z,33.08
2022-11-20T09:01:28.394Z,36.08
2022-11-20T09:04:00.570Z,36.50
2022-11-20T09:06:28.270Z,37.35
2022-11-20T09:08:56.075Z,38.87
2022-11-20T09:11:24.101Z,38.10
2022-11-20T09:13:52.097Z,39.67
2022-11-20T09:16:19.854Z,33.40
2022-11-20T09:18:53.957Z,36.65
2022-11-20T09:21:29.840Z,34.43
2022-11-20T09:23:57.566Z,37.85
2022-11-20T09:26:25.224Z,34.28
2022-11-20T09:28:56.797Z,32.88
2022-11-20T09:31:27.118Z,38.88
2022-11-20T09:33:54.840Z,42.60
2022-11-20T09:36:22.664Z,36.13
2022-11-20T09:38:50.476Z,39.13
2022-11-20T09:41:56.164Z,37.15
2022-11-20T09:44:26.769Z,34.05
2022-11-20T09:47:05.904Z,34.23
2022-11-20T09:49:47.576Z,35.42
2022-11-20T09:52:38.187Z,35.50
2022-11-20T09:55:12.444Z,35.92
2022-11-20T09:57:45.483Z,35.97
2022-11-20T10:00:16.055Z,34.50
2022-11-20T10:03:01.299Z,40.78
2022-11-20T10:05:45.984Z,35.90
2022-11-20T10:08:26.764Z,36.00
2022-11-20T10:11:02.610Z,36.90
2022-11-20T10:14:17.978Z,40.13
2022-11-20T10:17:13.787Z,37.22
2022-11-20T10:20:25.580Z,35.42
2022-11-20T10:23:41.613Z,37.45
2022-11-20T10:26:22.274Z,33.95
2022-11-20T10:29:08.669Z,33.07
2022-11-20T10:31:50.236Z,35.15
2022-11-20T10:35:09.411Z,35.30
2022-11-20T10:37:43.991Z,38.20
2022-11-20T10:40:38.272Z,38.00
2022-11-20T10:43:33.326Z,33.67
2022-11-20T10:46:09.017Z,34.58
2022-11-20T10:48:38.511Z,35.90
2022-11-20T10:51:57.950Z,37.13
2022-11-20T10:54:45.401Z,38.75
2022-11-20T10:57:54.333Z,38.73
2022-11-20T11:00:22.365Z,40.88
2022-11-20T11:03:03.038Z,43.33
2022-11-20T11:05:51.482Z,39.97
2022-11-20T11:08:20.754Z,44.47
2022-11-20T11:10:58.750Z,43.60
2022-11-20T11:13:29.596Z,44.00
2022-11-20T11:15:58.213Z,45.10
2022-11-20T11:18:33.453Z,42.15
2022-11-20T11:21:04.285Z,45.08
2022-11-20T11:23:42.045Z,41.63
2022-11-20T11:26:25.854Z,43.95
2022-11-20T11:29:05.861Z,43.30
2022-11-20T11:31:35.913Z,48.38
2022-11-20T11:34:18.133Z,47.22
2022-11-20T11:37:00.441Z,52.67
2022-11-20T11:39:31.986Z,52.67
2022-11-20T11:42:02.154Z,52.60
2022-11-20T11:44:51.872Z,55.15
2022-11-20T11:47:37.882Z,52.83
2022-11-20T11:50:16.597Z,50.33
2022-11-20T11:53:22.530Z,51.92
2022-11-20T11:56:11.471Z,53.95
2022-11-20T11:58:47.831Z,52.88
2022-11-20T12:01:45.786Z,50.20
2022-11-20T12:04:45.039Z,55.40
2022-11-20T12:07:45.647Z,57.10
2022-11-20T12:10:21.742Z,53.67
2022-11-20T12:13:45.595Z,56.72
2022-11-20T12:16:15.986Z,59.35
2022-11-20T12:18:44.285Z,64.67
2022-11-20T12:21:27.741Z,61.20
2022-11-20T12:24:43.228Z,62.05
2022-11-20T12:27:39.202Z,56.53
2022-11-20T12:30:16.839Z,61.40
2022-11-20T12:32:57.159Z,63.10
2022-11-20T12:35:52.721Z,60.17
2022-11-20T12:39:14.397Z,62.42
2022-11-20T12:42:26.002Z,65.28
2022-11-20T12:45:43.731Z,67.75
2022-11-20T12:48:52.067Z,58.37
2022-11-20T12:51:55.974Z,72.47
2022-11-20T12:54:32.230Z,63.08
2022-11-20T12:57:22.876Z,56.35
2022-11-20T13:00:18.139Z,59.60
2022-11-20T13:03:22.643Z,61.57
2022-11-20T13:06:01.355Z,64.68
2022-11-20T13:08:49.313Z,74.63
2022-11-20T13:11:33.495Z,65.82
2022-11-20T13:14:36.745Z,68.82
2022-11-20T13:17:15.850Z,71.90
2022-11-20T13:19:56.314Z,69.60
2022-11-20T13:22:48.388Z,66.95
2022-11-20T13:25:39.548Z,62.65
2022-11-20T13:28:30.844Z,65.28
2022-11-20T13:31:00.219Z,64.30
2022-11-20T13:33:38.274Z,63.42
2022-11-20T13:36:21.524Z,68.75
2022-11-20T13:38:53.210Z,68.63
2022-11-20T13:41:36.441Z,67.93
2022-11-20T13:44:40.244Z,73.77
2022-11-20T13:47:28.334Z,66.25
2022-11-20T13:50:00.248Z,62.28
2022-11-20T13:53:17.527Z,63.15
2022-11-20T13:56:11.330Z,70.18
2022-11-20T13:59:05.455Z,65.20
2022-11-20T14:01:35.543Z,85.13
2022-11-20T14:04:21.538Z,71.45
2022-11-20T14:06:50.607Z,70.03
2022-11-20T14:09:31.034Z,75.32
2022-11-20T14:11:59.508Z,80.83
2022-11-20T14:14:33.263Z,81.53
2022-11-20T14:17:35.771Z,82.65
2022-11-20T14:20:12.220Z,79.53
2022-11-20T14:22:39.916Z,75.07
2022-11-20T14:25:19.510Z,80.13
2022-11-20T14:27:59.960Z,72.15
2022-11-20T14:30:36.787Z,92.95
2022-11-20T14:33:06.161Z,80.75
2022-11-20T14:35:51.687Z,96.28
2022-11-20T14:38:27.104Z,101.23
2022-11-20T14:40:54.851Z,102.38
2022-11-20T14:43:29.749Z,84.40
2022-11-20T14:46:07.929Z,80.57
2022-11-20T14:48:44.518Z,101.00
2022-11-20T14:51:25.515Z,87.97
2022-11-20T14:53:53.216Z,108.72
2022-11-20T14:56:26.754Z,95.35
2022-11-20T14:58:58.964Z,83.50
2022-11-20T15:01:32.762Z,94.88
2022-11-20T15:04:08.750Z,92.80
2022-11-20T15:06:37.517Z,92.85
2022-11-20T15:09:13.675Z,104.50
2022-11-20T15:11:57.890Z,104.43
2022-11-20T15:14:27.583Z,103.00
2022-11-20T15:16:55.890Z,113.20
2022-11-20T15:19:28.211Z,98.70
2022-11-20T15:21:56.000Z,108.97
2022-11-20T15:24:23.805Z,96.72
2022-11-20T15:26:51.622Z,111.20
2022-11-20T15:29:20.141Z,116.67
2022-11-20T15:31:47.975Z,108.35
2022-11-20T15:34:17.060Z,114.93
2022-11-20T15:36:45.238Z,126.72
2022-11-20T15:39:13.109Z,108.25
2022-11-20T15:41:40.958Z,107.50
2022-11-20T15:44:08.618Z,114.07
2022-11-20T15:46:43.163Z,117.60
2022-11-20T15:49:15.649Z,135.55
2022-11-20T15:51:47.941Z,129.80
2022-11-20T15:54:21.125Z,229.53
2022-11-20T15:56:53.007Z,126.10
2022-11-20T15:59:21.021Z,109.10
2022-11-20T16:01:48.714Z,141.27
2022-11-20T16:04:18.074Z,123.88
2022-11-20T16:06:45.795Z,116.07
2022-11-20T16:09:13.475Z,146.85
2022-11-20T16:11:41.123Z,131.57
2022-11-20T16:14:30.922Z,126.60
2022-11-20T16:16:58.574Z,104.50
2022-11-20T16:19:35.963Z,135.93
2022-11-20T16:22:04.056Z,142.27
2022-11-20T16:24:32.290Z,130.57
2022-11-20T16:27:00.152Z,111.00
2022-11-20T16:29:27.876Z,112.88
2022-11-20T16:31:55.647Z,127.67
2022-11-20T16:34:23.304Z,149.18
2022-11-20T16:36:50.945Z,120.47
2022-11-20T16:39:23.290Z,98.28
2022-11-20T16:41:51.692Z,113.65
2022-11-20T16:44:19.358Z,147.57
2022-11-20T16:46:47.182Z,119.20
2022-11-20T16:49:15.546Z,103.53
2022-11-20T16:51:43.511Z,180.68
2022-11-20T16:54:21.006Z,147.57
2022-11-20T16:56:50.938Z,101.50
2022-11-20T16:59:18.692Z,93.47
2022-11-20T17:01:46.498Z,98.15
2022-11-20T17:04:14.565Z,110.70
2022-11-20T17:06:44.477Z,96.20
2022-11-20T17:09:13.714Z,105.47
2022-11-20T17:11:41.635Z,89.72
2022-11-20T17:14:13.479Z,92.97
2022-11-20T17:16:41.237Z,93.88
2022-11-20T17:19:11.496Z,176.05
2022-11-20T17:21:39.723Z,104.10
2022-11-20T17:24:11.115Z,109.68
2022-11-20T17:26:41.849Z,121.43
2022-11-20T17:29:15.063Z,108.57
2022-11-20T17:31:43.524Z,113.28
2022-11-20T17:34:14.486Z,134.33
2022-11-20T17:36:45.639Z,96.75
2022-11-20T17:39:16.413Z,115.78
2022-11-20T17:41:44.910Z,111.10
2022-11-20T17:44:13.384Z,171.30
2022-11-20T17:46:41.523Z,81.90
2022-11-20T17:49:09.179Z,84.25
2022-11-20T17:51:37.000Z,82.90
2022-11-20T17:54:09.368Z,84.10
2022-11-20T17:56:55.634Z,82.10
2022-11-20T17:59:23.322Z,89.80
2022-11-20T18:01:51.117Z,79.20
2022-11-20T18:04:18.857Z,79.53
2022-11-20T18:06:46.798Z,87.43
2022-11-20T18:09:14.502Z,77.65
2022-11-20T18:11:43.652Z,82.57
2022-11-20T18:14:26.326Z,78.22
2022-11-20T18:17:01.372Z,65.05
2022-11-20T18:19:34.222Z,73.50
2022-11-20T18:22:05.120Z,79.93
2022-11-20T18:24:33.024Z,140.30
2022-11-20T18:27:00.743Z,82.63
2022-11-20T18:29:28.865Z,105.55
2022-11-20T18:31:56.862Z,85.15
2022-11-20T18:34:25.201Z,76.22
2022-11-20T18:36:53.621Z,99.23
2022-11-20T18:39:21.866Z,63.78
2022-11-20T18:42:08.535Z,83.28
2022-11-20T18:44:51.385Z,110.53
2022-11-20T18:47:25.922Z,103.07
2022-11-20T18:49:57.070Z,130.03
2022-11-20T18:52:28.970Z,132.32
2022-11-20T18:54:57.968Z,163.52
2022-11-20T18:57:27.809Z,159.23
2022-11-20T19:00:03.278Z,111.10
2022-11-20T19:02:40.617Z,155.10
2022-11-20T19:05:13.926Z,306.52
2022-11-20T19:07:42.445Z,133.23
2022-11-20T19:10:10.454Z,87.63
2022-11-20T19:12:38.391Z,103.15
2022-11-20T19:15:06.727Z,83.10
2022-11-20T19:17:34.948Z,88.78
2022-11-20T19:20:02.641Z,76.75
2022-11-20T19:22:30.355Z,107.18
2022-11-20T19:24:58.013Z,94.72
2022-11-20T19:27:25.756Z,89.43
2022-11-20T19:29:54.829Z,98.03
2022-11-20T19:32:22.541Z,83.07
2022-11-20T19:34:50.200Z,89.22
2022-11-20T19:37:17.891Z,79.65
2022-11-20T19:39:45.589Z,79.40
2022-11-20T19:42:13.515Z,106.07
2022-11-20T19:44:41.171Z,81.00
2022-11-20T19:47:14.024Z,79.70
2022-11-20T19:49:42.285Z,75.53
2022-11-20T19:52:10.076Z,136.87
2022-11-20T19:54:37.918Z,88.22
2022-11-20T19:57:05.585Z,74.47
2022-11-20T19:59:33.237Z,81.63
2022-11-20T20:02:03.255Z,103.75
2022-11-20T20:04:31.101Z,104.70
2022-11-20T20:06:58.931Z,80.00
2022-11-20T20:09:27.526Z,79.00
2022-11-20T20:11:55.252Z,106.25
2022-11-20T20:14:22.976Z,71.95
2022-11-20T20:16:50.685Z,81.50
2022-11-20T20:19:18.615Z,81.72
2022-11-20T20:21:47.739Z,79.43
2022-11-20T20:24:15.505Z,103.93
2022-11-20T20:26:43.334Z,95.63
2022-11-20T20:29:11.046Z,87.13
2022-11-20T20:31:39.652Z,92.07
2022-11-20T20:34:07.377Z,76.60
2022-11-20T20:36:35.108Z,89.10
2022-11-20T20:39:03.060Z,77.35
2022-11-20T20:41:31.511Z,82.40
2022-11-20T20:44:31.690Z,87.88
2022-11-20T20:46:59.423Z,163.98
2022-11-20T20:49:27.256Z,90.07
2022-11-20T20:51:54.967Z,83.72
2022-11-20T20:54:22.668Z,93.90
2022-11-20T20:56:52.083Z,135.48
2022-11-20T20:59:19.805Z,208.27
2022-11-20T21:01:47.598Z,120.13
2022-11-20T21:04:15.318Z,119.30
2022-11-20T21:06:42.982Z,94.00
2022-11-20T21:09:10.679Z,95.03
2022-11-20T21:11:39.606Z,107.70
2022-11-20T21:14:07.635Z,152.45
2022-11-20T21:16:40.993Z,108.55
2022-11-20T21:19:08.929Z,195.83
2022-11-20T21:21:55.385Z,116.03
2022-11-20T21:24:23.418Z,135.40
2022-11-20T21:26:52.206Z,95.55
2022-11-20T21:29:21.372Z,120.75
2022-11-20T21:31:49.637Z,94.90
2022-11-20T21:34:18.357Z,98.60
2022-11-20T21:36:46.553Z,92.68
2022-11-20T21:39:15.150Z,205.98
2022-11-20T21:41:43.186Z,122.35
2022-11-20T21:44:31.667Z,139.87
2022-11-20T21:47:02.428Z,119.15
2022-11-20T21:49:30.072Z,99.03
2022-11-20T21:51:57.784Z,125.15
2022-11-20T21:54:25.724Z,101.40
2022-11-20T21:56:53.653Z,106.47
2022-11-20T21:59:22.054Z,98.25
2022-11-20T22:01:49.993Z,142.43
2022-11-20T22:04:17.682Z,111.07
2022-11-20T22:06:45.329Z,101.03
2022-11-20T22:09:13.913Z,92.00
2022-11-20T22:11:41.577Z,97.78
2022-11-20T22:14:23.763Z,179.45
2022-11-20T22:16:53.867Z,97.43
2022-11-20T22:19:23.129Z,289.27
2022-11-20T22:21:51.084Z,262.20
2022-11-20T22:24:21.448Z,119.43
2022-11-20T22:26:49.614Z,217.38
2022-11-20T22:29:23.596Z,138.10
2022-11-20T22:31:54.583Z,103.57
2022-11-20T22:34:22.733Z,110.20
2022-11-20T22:36:50.881Z,178.02
2022-11-20T22:39:18.636Z,112.55
2022-11-20T22:41:46.366Z,130.13
2022-11-20T22:44:15.398Z,163.15
2022-11-20T22:46:43.198Z,102.13
2022-11-20T22:49:10.962Z,90.32
2022-11-20T22:51:41.193Z,98.82
2022-11-20T22:54:12.054Z,121.93
2022-11-20T22:56:40.516Z,95.63
2022-11-20T22:59:08.330Z,143.67
2022-11-20T23:01:37.689Z,248.10
2022-11-20T23:04:09.787Z,115.60
2022-11-20T23:06:37.912Z,143.35
2022-11-20T23:09:07.453Z,118.50
2022-11-20T23:11:35.764Z,111.17
2022-11-20T23:14:07.355Z,169.88
2022-11-20T23:16:35.688Z,169.98
2022-11-20T23:19:07.219Z,290.52
2022-11-20T23:21:38.658Z,172.68
2022-11-20T23:24:07.083Z,207.70
2022-11-20T23:26:38.974Z,136.05
2022-11-20T23:29:07.338Z,233.40
2022-11-20T23:31:36.257Z,134.63
2022-11-20T23:34:04.286Z,232.35
2022-11-20T23:36:32.265Z,100.13
2022-11-20T23:39:00.108Z,174.40
2022-11-20T23:41:27.807Z,116.80
2022-11-20T23:43:55.506Z,125.55
2022-11-20T23:46:23.179Z,110.40
2022-11-20T23:48:50.832Z,146.70
2022-11-20T23:51:18.514Z,92.65
2022-11-20T23:53:46.236Z,95.97
2022-11-20T23:56:16.999Z,112.50
2022-11-20T23:58:44.809Z,88.40
